Ginys del Meteocat
Campanya meteocatpedra

Dades de l'estació automàtica Port de Barcelona - Bocana Sud

?
?
Resum diari 15:00 TU
Dades diàries de l'estació meteorològica
Ratxa màxima del vent (10 m) 45.4 km/h - 172º 3:51 TU

El tram horari està expressat en Temps Universal (TU). Cal sumar una hora en horari d'hivern i dues en horari d'estiu per passar a l'hora oficial.

Port de Barcelona - Bocana Sud

Metadades estació meteorol´gica
Municipi El Prat de Llobregat
Comarca Baix Llobregat
Altitud 3 m
Data alta 08.04.2015
Estat actual Operativa
Dades de període
Període
TU
VVM (10 m)
km/h
DVM (10 m)
graus
VVX (10 m)
km/h
00:00 - 00:30 2.5 345 6.5
00:30 - 01:00 3.2 82 6.5
01:00 - 01:30 24.8 185 36.4
01:30 - 02:00 29.9 184 38.9
02:00 - 02:30 27.7 178 35.6
02:30 - 03:00 29.9 167 37.4
03:00 - 03:30 31.0 169 37.4
03:30 - 04:00 34.2 169 45.4
04:00 - 04:30 36.0 175 45.4
04:30 - 05:00 33.5 179 40.7
05:00 - 05:30 32.0 183 41.0
05:30 - 06:00 28.1 189 36.7
06:00 - 06:30 29.9 186 36.7
06:30 - 07:00 27.7 190 36.0
07:00 - 07:30 22.0 197 27.4
07:30 - 08:00 22.3 196 27.4
08:00 - 08:30 23.4 198 30.6
08:30 - 09:00 24.1 200 31.0
09:00 - 09:30 27.0 205 32.8
09:30 - 10:00 26.6 211 42.8
10:00 - 10:30 28.8 215 43.2
10:30 - 11:00 26.6 206 33.5
11:00 - 11:30 30.2 208 36.4
11:30 - 12:00 31.0 210 38.5
12:00 - 12:30 31.0 208 38.5
12:30 - 13:00 30.2 203 40.7
13:00 - 13:30 29.2 226 43.9
13:30 - 14:00 18.7 237 29.9
14:00 - 14:30 18.7 239 30.6
14:30 - 15:00 17.6 216 28.8
15:00 - 15:30 15.8 222 24.8
15:30 - 16:00 (s/d) (s/d) (s/d)

Les dades en taronja només han passat un control de qualitat automàtic. Resta pendent la seva validació definitiva.